sensor_id;sensor_type;location;lat;lon;timestamp;P1;durP1;ratioP1;P2;durP2;ratioP2
64684;SDS011;51109;47.414;18.954;2024-02-23T00:01:32;4.75;;;3.70;;
64684;SDS011;51109;47.414;18.954;2024-02-23T00:03:58;6.03;;;2.42;;
64684;SDS011;51109;47.414;18.954;2024-02-23T00:06:23;2.63;;;2.25;;
64684;SDS011;51109;47.414;18.954;2024-02-23T00:08:53;2.97;;;2.67;;
64684;SDS011;51109;47.414;18.954;2024-02-23T00:11:20;3.80;;;2.28;;
64684;SDS011;51109;47.414;18.954;2024-02-23T00:13:46;3.80;;;2.53;;
64684;SDS011;51109;47.414;18.954;2024-02-23T00:16:12;7.60;;;4.25;;
64684;SDS011;51109;47.414;18.954;2024-02-23T00:18:38;3.85;;;2.60;;
64684;SDS011;51109;47.414;18.954;2024-02-23T00:21:04;2.42;;;2.22;;
64684;SDS011;51109;47.414;18.954;2024-02-23T00:23:30;5.70;;;2.80;;
64684;SDS011;51109;47.414;18.954;2024-02-23T00:25:56;3.95;;;2.85;;
64684;SDS011;51109;47.414;18.954;2024-02-23T00:28:21;5.78;;;2.50;;
64684;SDS011;51109;47.414;18.954;2024-02-23T00:30:47;2.92;;;2.30;;
64684;SDS011;51109;47.414;18.954;2024-02-23T00:33:13;5.10;;;3.05;;
64684;SDS011;51109;47.414;18.954;2024-02-23T00:35:40;4.72;;;2.80;;
64684;SDS011;51109;47.414;18.954;2024-02-23T00:38:05;3.03;;;2.42;;
64684;SDS011;51109;47.414;18.954;2024-02-23T00:40:32;4.40;;;2.75;;
64684;SDS011;51109;47.414;18.954;2024-02-23T00:42:58;3.25;;;2.55;;
64684;SDS011;51109;47.414;18.954;2024-02-23T00:45:26;3.75;;;2.67;;
64684;SDS011;51109;47.414;18.954;2024-02-23T00:47:52;4.82;;;2.70;;
64684;SDS011;51109;47.414;18.954;2024-02-23T00:50:17;3.80;;;2.65;;
64684;SDS011;51109;47.414;18.954;2024-02-23T00:52:43;4.07;;;3.08;;
64684;SDS011;51109;47.414;18.954;2024-02-23T00:55:10;4.13;;;2.92;;
64684;SDS011;51109;47.414;18.954;2024-02-23T00:57:36;4.82;;;3.03;;
64684;SDS011;51109;47.414;18.954;2024-02-23T01:00:03;4.38;;;2.58;;
64684;SDS011;51109;47.414;18.954;2024-02-23T01:02:36;4.53;;;2.85;;
64684;SDS011;51109;47.414;18.954;2024-02-23T01:05:03;3.17;;;2.83;;
64684;SDS011;51109;47.414;18.954;2024-02-23T01:07:29;5.35;;;3.72;;
64684;SDS011;51109;47.414;18.954;2024-02-23T01:09:55;4.25;;;3.10;;
64684;SDS011;51109;47.414;18.954;2024-02-23T01:12:21;5.55;;;3.10;;
64684;SDS011;51109;47.414;18.954;2024-02-23T01:14:47;11.75;;;3.05;;
64684;SDS011;51109;47.414;18.954;2024-02-23T01:17:14;6.65;;;2.88;;
64684;SDS011;51109;47.414;18.954;2024-02-23T01:19:41;4.35;;;3.78;;
64684;SDS011;51109;47.414;18.954;2024-02-23T01:22:08;4.78;;;3.38;;
64684;SDS011;51109;47.414;18.954;2024-02-23T01:24:34;5.43;;;3.20;;
64684;SDS011;51109;47.414;18.954;2024-02-23T01:27:00;3.80;;;3.03;;
64684;SDS011;51109;47.414;18.954;2024-02-23T01:29:26;7.57;;;3.60;;
64684;SDS011;51109;47.414;18.954;2024-02-23T01:31:52;4.28;;;3.15;;
64684;SDS011;51109;47.414;18.954;2024-02-23T01:34:20;5.78;;;3.03;;
64684;SDS011;51109;47.414;18.954;2024-02-23T01:36:46;7.15;;;3.67;;
64684;SDS011;51109;47.414;18.954;2024-02-23T01:39:12;4.05;;;3.20;;
64684;SDS011;51109;47.414;18.954;2024-02-23T01:41:38;7.82;;;3.47;;
64684;SDS011;51109;47.414;18.954;2024-02-23T01:44:04;7.10;;;3.65;;
64684;SDS011;51109;47.414;18.954;2024-02-23T01:46:30;4.70;;;3.28;;
64684;SDS011;51109;47.414;18.954;2024-02-23T01:48:56;3.38;;;2.70;;
64684;SDS011;51109;47.414;18.954;2024-02-23T01:51:23;4.90;;;3.45;;
64684;SDS011;51109;47.414;18.954;2024-02-23T01:53:49;6.05;;;3.10;;
64684;SDS011;51109;47.414;18.954;2024-02-23T01:56:16;6.65;;;3.38;;
64684;SDS011;51109;47.414;18.954;2024-02-23T01:58:46;5.22;;;3.42;;
64684;SDS011;51109;47.414;18.954;2024-02-23T02:01:12;3.42;;;3.03;;
64684;SDS011;51109;47.414;18.954;2024-02-23T02:03:38;4.60;;;3.40;;
64684;SDS011;51109;47.414;18.954;2024-02-23T02:06:05;4.07;;;2.80;;
64684;SDS011;51109;47.414;18.954;2024-02-23T02:08:34;5.38;;;3.20;;
64684;SDS011;51109;47.414;18.954;2024-02-23T02:11:01;5.70;;;3.28;;
64684;SDS011;51109;47.414;18.954;2024-02-23T02:13:30;5.38;;;3.20;;
64684;SDS011;51109;47.414;18.954;2024-02-23T02:15:57;4.72;;;3.30;;
64684;SDS011;51109;47.414;18.954;2024-02-23T02:18:25;3.92;;;2.90;;
64684;SDS011;51109;47.414;18.954;2024-02-23T02:20:53;7.50;;;3.58;;
64684;SDS011;51109;47.414;18.954;2024-02-23T02:23:20;5.20;;;3.35;;
64684;SDS011;51109;47.414;18.954;2024-02-23T02:25:52;3.38;;;2.88;;
64684;SDS011;51109;47.414;18.954;2024-02-23T02:28:19;4.85;;;3.10;;
64684;SDS011;51109;47.414;18.954;2024-02-23T02:30:45;5.13;;;3.40;;
64684;SDS011;51109;47.414;18.954;2024-02-23T02:33:11;5.68;;;3.10;;
64684;SDS011;51109;47.414;18.954;2024-02-23T02:35:37;3.92;;;3.10;;
64684;SDS011;51109;47.414;18.954;2024-02-23T02:38:02;3.58;;;3.03;;
64684;SDS011;51109;47.414;18.954;2024-02-23T02:40:28;4.93;;;3.15;;
64684;SDS011;51109;47.414;18.954;2024-02-23T02:42:54;4.65;;;3.17;;
64684;SDS011;51109;47.414;18.954;2024-02-23T02:45:20;3.78;;;3.03;;
64684;SDS011;51109;47.414;18.954;2024-02-23T02:47:46;4.07;;;2.90;;
64684;SDS011;51109;47.414;18.954;2024-02-23T02:50:12;5.43;;;3.42;;
64684;SDS011;51109;47.414;18.954;2024-02-23T02:52:38;4.50;;;3.20;;
64684;SDS011;51109;47.414;18.954;2024-02-23T02:55:03;8.82;;;3.20;;
64684;SDS011;51109;47.414;18.954;2024-02-23T02:57:30;4.88;;;3.28;;
64684;SDS011;51109;47.414;18.954;2024-02-23T02:59:56;6.82;;;3.90;;
64684;SDS011;51109;47.414;18.954;2024-02-23T03:02:21;4.57;;;3.20;;
64684;SDS011;51109;47.414;18.954;2024-02-23T03:04:48;4.97;;;3.25;;
64684;SDS011;51109;47.414;18.954;2024-02-23T03:07:14;4.30;;;3.38;;
64684;SDS011;51109;47.414;18.954;2024-02-23T03:09:41;8.77;;;3.40;;
64684;SDS011;51109;47.414;18.954;2024-02-23T03:12:07;5.60;;;3.65;;
64684;SDS011;51109;47.414;18.954;2024-02-23T03:14:33;4.22;;;3.10;;
64684;SDS011;51109;47.414;18.954;2024-02-23T03:16:59;6.80;;;3.72;;
64684;SDS011;51109;47.414;18.954;2024-02-23T03:19:25;5.53;;;3.88;;
64684;SDS011;51109;47.414;18.954;2024-02-23T03:21:51;6.10;;;3.80;;
64684;SDS011;51109;47.414;18.954;2024-02-23T03:24:17;3.95;;;3.45;;
64684;SDS011;51109;47.414;18.954;2024-02-23T03:26:43;6.78;;;4.05;;
64684;SDS011;51109;47.414;18.954;2024-02-23T03:29:09;7.05;;;3.33;;
64684;SDS011;51109;47.414;18.954;2024-02-23T03:31:36;6.10;;;3.65;;
64684;SDS011;51109;47.414;18.954;2024-02-23T03:34:02;5.97;;;3.97;;
64684;SDS011;51109;47.414;18.954;2024-02-23T03:36:28;7.22;;;4.05;;
64684;SDS011;51109;47.414;18.954;2024-02-23T03:38:54;5.72;;;4.35;;
64684;SDS011;51109;47.414;18.954;2024-02-23T03:41:20;6.60;;;4.32;;
64684;SDS011;51109;47.414;18.954;2024-02-23T03:43:45;7.80;;;4.80;;
64684;SDS011;51109;47.414;18.954;2024-02-23T03:46:11;7.53;;;3.95;;
64684;SDS011;51109;47.414;18.954;2024-02-23T03:48:37;7.13;;;3.97;;
64684;SDS011;51109;47.414;18.954;2024-02-23T03:51:03;5.43;;;3.92;;
64684;SDS011;51109;47.414;18.954;2024-02-23T03:53:32;6.25;;;3.38;;
64684;SDS011;51109;47.414;18.954;2024-02-23T03:55:58;6.63;;;3.70;;
64684;SDS011;51109;47.414;18.954;2024-02-23T03:58:24;8.02;;;3.75;;
64684;SDS011;51109;47.414;18.954;2024-02-23T04:00:50;6.22;;;4.35;;
64684;SDS011;51109;47.414;18.954;2024-02-23T04:03:16;7.60;;;4.57;;
64684;SDS011;51109;47.414;18.954;2024-02-23T04:05:42;5.50;;;3.92;;
64684;SDS011;51109;47.414;18.954;2024-02-23T04:08:08;4.75;;;4.05;;
64684;SDS011;51109;47.414;18.954;2024-02-23T04:10:34;6.05;;;3.65;;
64684;SDS011;51109;47.414;18.954;2024-02-23T04:13:00;6.82;;;3.85;;
64684;SDS011;51109;47.414;18.954;2024-02-23T04:15:27;6.20;;;3.97;;
64684;SDS011;51109;47.414;18.954;2024-02-23T04:17:52;7.68;;;4.18;;
64684;SDS011;51109;47.414;18.954;2024-02-23T04:20:18;4.68;;;3.63;;
64684;SDS011;51109;47.414;18.954;2024-02-23T04:22:44;7.35;;;4.30;;
64684;SDS011;51109;47.414;18.954;2024-02-23T04:25:11;5.70;;;4.00;;
64684;SDS011;51109;47.414;18.954;2024-02-23T04:27:37;6.15;;;4.30;;
64684;SDS011;51109;47.414;18.954;2024-02-23T04:30:03;7.40;;;3.97;;
64684;SDS011;51109;47.414;18.954;2024-02-23T04:32:30;4.90;;;3.97;;
64684;SDS011;51109;47.414;18.954;2024-02-23T04:34:55;6.78;;;4.40;;
64684;SDS011;51109;47.414;18.954;2024-02-23T04:37:22;5.68;;;4.03;;
64684;SDS011;51109;47.414;18.954;2024-02-23T04:39:47;6.15;;;3.95;;
64684;SDS011;51109;47.414;18.954;2024-02-23T04:42:13;5.90;;;3.90;;
64684;SDS011;51109;47.414;18.954;2024-02-23T04:44:41;6.63;;;3.50;;
64684;SDS011;51109;47.414;18.954;2024-02-23T04:47:07;7.03;;;4.22;;
64684;SDS011;51109;47.414;18.954;2024-02-23T04:49:34;4.88;;;3.30;;
64684;SDS011;51109;47.414;18.954;2024-02-23T04:52:00;5.88;;;4.00;;
64684;SDS011;51109;47.414;18.954;2024-02-23T04:54:26;7.32;;;3.80;;
64684;SDS011;51109;47.414;18.954;2024-02-23T04:56:52;5.95;;;3.40;;
64684;SDS011;51109;47.414;18.954;2024-02-23T04:59:18;4.15;;;3.75;;
64684;SDS011;51109;47.414;18.954;2024-02-23T05:01:43;4.35;;;3.00;;
64684;SDS011;51109;47.414;18.954;2024-02-23T05:04:09;4.57;;;3.97;;
64684;SDS011;51109;47.414;18.954;2024-02-23T05:06:35;4.10;;;3.08;;
64684;SDS011;51109;47.414;18.954;2024-02-23T05:09:01;4.57;;;2.92;;
64684;SDS011;51109;47.414;18.954;2024-02-23T05:11:28;4.00;;;2.80;;
64684;SDS011;51109;47.414;18.954;2024-02-23T05:13:54;4.50;;;3.00;;
64684;SDS011;51109;47.414;18.954;2024-02-23T05:16:19;2.85;;;2.45;;
64684;SDS011;51109;47.414;18.954;2024-02-23T05:18:45;4.32;;;2.70;;
64684;SDS011;51109;47.414;18.954;2024-02-23T05:21:12;3.45;;;2.50;;
64684;SDS011;51109;47.414;18.954;2024-02-23T05:23:40;4.10;;;2.63;;
64684;SDS011;51109;47.414;18.954;2024-02-23T05:26:05;4.95;;;2.95;;
64684;SDS011;51109;47.414;18.954;2024-02-23T05:28:32;3.67;;;2.95;;
64684;SDS011;51109;47.414;18.954;2024-02-23T05:30:58;4.97;;;2.58;;
64684;SDS011;51109;47.414;18.954;2024-02-23T05:33:24;3.42;;;2.40;;
64684;SDS011;51109;47.414;18.954;2024-02-23T05:35:50;3.00;;;2.40;;
64684;SDS011;51109;47.414;18.954;2024-02-23T05:38:16;3.65;;;2.30;;
64684;SDS011;51109;47.414;18.954;2024-02-23T05:40:42;3.15;;;2.70;;
64684;SDS011;51109;47.414;18.954;2024-02-23T05:43:08;3.72;;;2.53;;
64684;SDS011;51109;47.414;18.954;2024-02-23T05:45:34;5.18;;;2.70;;
64684;SDS011;51109;47.414;18.954;2024-02-23T05:48:00;4.60;;;2.53;;
64684;SDS011;51109;47.414;18.954;2024-02-23T05:50:26;5.13;;;2.78;;
64684;SDS011;51109;47.414;18.954;2024-02-23T05:52:52;4.43;;;2.42;;
64684;SDS011;51109;47.414;18.954;2024-02-23T05:55:18;4.13;;;2.60;;
64684;SDS011;51109;47.414;18.954;2024-02-23T05:57:44;2.90;;;2.38;;
64684;SDS011;51109;47.414;18.954;2024-02-23T06:00:10;3.95;;;2.60;;
64684;SDS011;51109;47.414;18.954;2024-02-23T06:02:37;4.53;;;2.20;;
64684;SDS011;51109;47.414;18.954;2024-02-23T06:05:04;4.82;;;2.45;;
64684;SDS011;51109;47.414;18.954;2024-02-23T06:07:33;5.60;;;2.85;;
64684;SDS011;51109;47.414;18.954;2024-02-23T06:10:00;3.45;;;2.67;;
64684;SDS011;51109;47.414;18.954;2024-02-23T06:12:26;3.35;;;2.92;;
64684;SDS011;51109;47.414;18.954;2024-02-23T06:14:52;4.72;;;3.85;;
64684;SDS011;51109;47.414;18.954;2024-02-23T06:17:18;4.78;;;3.65;;
64684;SDS011;51109;47.414;18.954;2024-02-23T06:19:44;5.32;;;4.60;;
64684;SDS011;51109;47.414;18.954;2024-02-23T06:22:10;4.72;;;4.13;;
64684;SDS011;51109;47.414;18.954;2024-02-23T06:24:37;8.20;;;4.13;;
64684;SDS011;51109;47.414;18.954;2024-02-23T06:27:03;6.55;;;4.10;;
64684;SDS011;51109;47.414;18.954;2024-02-23T06:29:29;5.75;;;4.15;;
64684;SDS011;51109;47.414;18.954;2024-02-23T06:31:55;7.85;;;4.18;;
64684;SDS011;51109;47.414;18.954;2024-02-23T06:34:21;7.50;;;4.15;;
64684;SDS011;51109;47.414;18.954;2024-02-23T06:36:47;4.57;;;4.03;;
64684;SDS011;51109;47.414;18.954;2024-02-23T06:39:13;7.90;;;3.95;;
64684;SDS011;51109;47.414;18.954;2024-02-23T06:41:38;6.13;;;3.47;;
64684;SDS011;51109;47.414;18.954;2024-02-23T06:44:04;4.50;;;3.80;;
64684;SDS011;51109;47.414;18.954;2024-02-23T06:46:31;8.00;;;3.95;;
64684;SDS011;51109;47.414;18.954;2024-02-23T06:48:56;5.18;;;4.20;;
64684;SDS011;51109;47.414;18.954;2024-02-23T06:51:22;8.07;;;4.05;;
64684;SDS011;51109;47.414;18.954;2024-02-23T06:53:48;6.10;;;4.20;;
64684;SDS011;51109;47.414;18.954;2024-02-23T06:56:14;6.47;;;4.65;;
64684;SDS011;51109;47.414;18.954;2024-02-23T06:58:40;6.90;;;4.03;;
64684;SDS011;51109;47.414;18.954;2024-02-23T07:01:05;8.20;;;4.68;;
64684;SDS011;51109;47.414;18.954;2024-02-23T07:03:32;9.10;;;6.05;;
64684;SDS011;51109;47.414;18.954;2024-02-23T07:06:00;11.70;;;6.45;;
64684;SDS011;51109;47.414;18.954;2024-02-23T07:08:26;11.48;;;5.95;;
64684;SDS011;51109;47.414;18.954;2024-02-23T07:10:52;11.00;;;6.32;;
64684;SDS011;51109;47.414;18.954;2024-02-23T07:13:18;11.00;;;6.60;;
64684;SDS011;51109;47.414;18.954;2024-02-23T07:15:45;9.68;;;6.38;;
64684;SDS011;51109;47.414;18.954;2024-02-23T07:18:11;8.27;;;5.50;;
64684;SDS011;51109;47.414;18.954;2024-02-23T07:20:36;8.98;;;6.05;;
64684;SDS011;51109;47.414;18.954;2024-02-23T07:23:02;11.35;;;7.40;;
64684;SDS011;51109;47.414;18.954;2024-02-23T07:25:28;10.18;;;6.43;;
64684;SDS011;51109;47.414;18.954;2024-02-23T07:27:54;8.93;;;5.72;;
64684;SDS011;51109;47.414;18.954;2024-02-23T07:30:20;15.90;;;8.00;;
64684;SDS011;51109;47.414;18.954;2024-02-23T07:32:46;16.52;;;8.38;;
64684;SDS011;51109;47.414;18.954;2024-02-23T07:35:12;16.95;;;7.75;;
64684;SDS011;51109;47.414;18.954;2024-02-23T07:37:38;14.63;;;8.27;;
64684;SDS011;51109;47.414;18.954;2024-02-23T07:40:04;9.57;;;6.50;;
64684;SDS011;51109;47.414;18.954;2024-02-23T07:42:33;9.98;;;6.40;;
64684;SDS011;51109;47.414;18.954;2024-02-23T07:45:03;11.45;;;6.30;;
64684;SDS011;51109;47.414;18.954;2024-02-23T07:47:32;11.57;;;6.05;;
64684;SDS011;51109;47.414;18.954;2024-02-23T07:49:58;8.98;;;6.50;;
64684;SDS011;51109;47.414;18.954;2024-02-23T07:52:24;7.80;;;5.45;;
64684;SDS011;51109;47.414;18.954;2024-02-23T07:54:54;11.35;;;6.88;;
64684;SDS011;51109;47.414;18.954;2024-02-23T07:57:20;8.38;;;6.35;;
64684;SDS011;51109;47.414;18.954;2024-02-23T07:59:46;14.25;;;7.10;;
64684;SDS011;51109;47.414;18.954;2024-02-23T08:02:13;10.60;;;7.90;;
64684;SDS011;51109;47.414;18.954;2024-02-23T08:04:39;12.57;;;7.50;;
64684;SDS011;51109;47.414;18.954;2024-02-23T08:07:05;16.45;;;7.53;;
64684;SDS011;51109;47.414;18.954;2024-02-23T08:09:31;12.23;;;7.75;;
64684;SDS011;51109;47.414;18.954;2024-02-23T08:11:57;9.25;;;7.25;;
64684;SDS011;51109;47.414;18.954;2024-02-23T08:14:23;12.52;;;7.88;;
64684;SDS011;51109;47.414;18.954;2024-02-23T08:16:49;11.90;;;8.30;;
64684;SDS011;51109;47.414;18.954;2024-02-23T08:19:15;13.88;;;8.23;;
64684;SDS011;51109;47.414;18.954;2024-02-23T08:21:41;11.15;;;7.60;;
64684;SDS011;51109;47.414;18.954;2024-02-23T08:24:07;9.63;;;7.20;;
64684;SDS011;51109;47.414;18.954;2024-02-23T08:26:33;11.07;;;7.53;;
64684;SDS011;51109;47.414;18.954;2024-02-23T08:28:59;12.43;;;8.50;;
64684;SDS011;51109;47.414;18.954;2024-02-23T08:31:25;11.88;;;8.20;;
64684;SDS011;51109;47.414;18.954;2024-02-23T08:33:51;12.48;;;8.10;;
64684;SDS011;51109;47.414;18.954;2024-02-23T08:36:17;10.77;;;8.20;;
64684;SDS011;51109;47.414;18.954;2024-02-23T08:38:43;12.32;;;8.95;;
64684;SDS011;51109;47.414;18.954;2024-02-23T08:41:08;12.02;;;9.07;;
64684;SDS011;51109;47.414;18.954;2024-02-23T08:43:34;16.48;;;9.02;;
64684;SDS011;51109;47.414;18.954;2024-02-23T08:46:01;13.02;;;8.60;;
64684;SDS011;51109;47.414;18.954;2024-02-23T08:48:27;11.38;;;7.53;;
64684;SDS011;51109;47.414;18.954;2024-02-23T08:50:53;11.73;;;8.98;;
64684;SDS011;51109;47.414;18.954;2024-02-23T08:53:19;10.68;;;7.85;;
64684;SDS011;51109;47.414;18.954;2024-02-23T08:55:45;13.45;;;9.07;;
64684;SDS011;51109;47.414;18.954;2024-02-23T08:58:11;21.45;;;10.48;;
64684;SDS011;51109;47.414;18.954;2024-02-23T09:00:37;13.27;;;9.05;;
64684;SDS011;51109;47.414;18.954;2024-02-23T09:03:03;11.25;;;8.02;;
64684;SDS011;51109;47.414;18.954;2024-02-23T09:05:29;15.93;;;9.52;;
64684;SDS011;51109;47.414;18.954;2024-02-23T09:07:55;15.52;;;8.75;;
64684;SDS011;51109;47.414;18.954;2024-02-23T09:10:21;11.05;;;7.80;;
64684;SDS011;51109;47.414;18.954;2024-02-23T09:12:47;14.57;;;9.55;;
64684;SDS011;51109;47.414;18.954;2024-02-23T09:15:12;14.82;;;11.18;;
64684;SDS011;51109;47.414;18.954;2024-02-23T09:17:39;13.55;;;9.77;;
64684;SDS011;51109;47.414;18.954;2024-02-23T09:20:07;10.35;;;7.72;;
64684;SDS011;51109;47.414;18.954;2024-02-23T09:22:33;31.33;;;16.00;;
64684;SDS011;51109;47.414;18.954;2024-02-23T09:24:59;58.85;;;27.25;;
64684;SDS011;51109;47.414;18.954;2024-02-23T09:27:25;68.93;;;30.90;;
64684;SDS011;51109;47.414;18.954;2024-02-23T09:29:51;50.70;;;26.42;;
64684;SDS011;51109;47.414;18.954;2024-02-23T09:32:17;49.67;;;25.00;;
64684;SDS011;51109;47.414;18.954;2024-02-23T09:34:42;54.95;;;29.98;;
64684;SDS011;51109;47.414;18.954;2024-02-23T09:37:08;33.50;;;19.02;;
64684;SDS011;51109;47.414;18.954;2024-02-23T09:39:35;33.00;;;18.75;;
64684;SDS011;51109;47.414;18.954;2024-02-23T09:42:00;33.60;;;18.80;;
64684;SDS011;51109;47.414;18.954;2024-02-23T09:44:34;39.47;;;23.30;;
64684;SDS011;51109;47.414;18.954;2024-02-23T09:47:03;29.33;;;17.40;;
64684;SDS011;51109;47.414;18.954;2024-02-23T09:49:39;21.25;;;11.70;;
64684;SDS011;51109;47.414;18.954;2024-02-23T09:52:06;13.10;;;8.70;;
64684;SDS011;51109;47.414;18.954;2024-02-23T09:54:33;10.70;;;7.05;;
64684;SDS011;51109;47.414;18.954;2024-02-23T09:56:59;18.83;;;11.32;;
64684;SDS011;51109;47.414;18.954;2024-02-23T09:59:28;25.60;;;16.88;;
64684;SDS011;51109;47.414;18.954;2024-02-23T10:01:56;28.33;;;17.45;;
64684;SDS011;51109;47.414;18.954;2024-02-23T10:04:22;22.13;;;14.90;;
64684;SDS011;51109;47.414;18.954;2024-02-23T10:06:50;29.77;;;18.08;;
64684;SDS011;51109;47.414;18.954;2024-02-23T10:09:16;37.33;;;24.33;;
64684;SDS011;51109;47.414;18.954;2024-02-23T10:11:42;33.47;;;21.58;;
64684;SDS011;51109;47.414;18.954;2024-02-23T10:14:08;30.33;;;20.48;;
64684;SDS011;51109;47.414;18.954;2024-02-23T10:16:36;32.10;;;22.70;;
64684;SDS011;51109;47.414;18.954;2024-02-23T10:19:03;25.00;;;19.48;;
64684;SDS011;51109;47.414;18.954;2024-02-23T10:21:29;16.65;;;11.90;;
64684;SDS011;51109;47.414;18.954;2024-02-23T10:23:55;10.48;;;8.02;;
64684;SDS011;51109;47.414;18.954;2024-02-23T10:26:21;12.85;;;10.35;;
64684;SDS011;51109;47.414;18.954;2024-02-23T10:28:48;11.55;;;8.70;;
64684;SDS011;51109;47.414;18.954;2024-02-23T10:31:13;12.52;;;7.25;;
64684;SDS011;51109;47.414;18.954;2024-02-23T10:33:40;10.35;;;6.97;;
64684;SDS011;51109;47.414;18.954;2024-02-23T10:36:06;10.52;;;7.88;;
64684;SDS011;51109;47.414;18.954;2024-02-23T10:38:37;11.52;;;7.22;;
64684;SDS011;51109;47.414;18.954;2024-02-23T10:41:06;11.98;;;8.38;;
64684;SDS011;51109;47.414;18.954;2024-02-23T10:43:50;14.80;;;9.85;;
64684;SDS011;51109;47.414;18.954;2024-02-23T10:46:17;10.73;;;7.65;;
64684;SDS011;51109;47.414;18.954;2024-02-23T10:48:46;9.68;;;7.57;;
64684;SDS011;51109;47.414;18.954;2024-02-23T10:51:14;11.50;;;8.07;;
64684;SDS011;51109;47.414;18.954;2024-02-23T10:53:40;17.27;;;9.10;;
64684;SDS011;51109;47.414;18.954;2024-02-23T10:56:09;16.95;;;8.85;;
64684;SDS011;51109;47.414;18.954;2024-02-23T10:58:35;11.07;;;7.45;;
64684;SDS011;51109;47.414;18.954;2024-02-23T11:01:02;11.45;;;8.60;;
64684;SDS011;51109;47.414;18.954;2024-02-23T11:03:32;11.05;;;7.13;;
64684;SDS011;51109;47.414;18.954;2024-02-23T11:06:00;9.52;;;7.03;;
64684;SDS011;51109;47.414;18.954;2024-02-23T11:08:29;6.88;;;5.15;;
64684;SDS011;51109;47.414;18.954;2024-02-23T11:10:55;8.48;;;5.53;;
64684;SDS011;51109;47.414;18.954;2024-02-23T11:16:21;6.00;;;3.30;;
64684;SDS011;51109;47.414;18.954;2024-02-23T11:18:50;6.40;;;4.07;;
64684;SDS011;51109;47.414;18.954;2024-02-23T11:21:34;5.20;;;3.83;;
64684;SDS011;51109;47.414;18.954;2024-02-23T11:24:02;7.25;;;3.90;;
64684;SDS011;51109;47.414;18.954;2024-02-23T11:26:29;5.43;;;3.85;;
64684;SDS011;51109;47.414;18.954;2024-02-23T11:28:55;5.25;;;3.63;;
64684;SDS011;51109;47.414;18.954;2024-02-23T11:31:22;5.03;;;3.47;;
64684;SDS011;51109;47.414;18.954;2024-02-23T11:33:53;5.07;;;3.40;;
64684;SDS011;51109;47.414;18.954;2024-02-23T11:36:29;4.20;;;3.22;;
64684;SDS011;51109;47.414;18.954;2024-02-23T11:38:57;7.60;;;3.92;;
64684;SDS011;51109;47.414;18.954;2024-02-23T11:41:24;5.35;;;3.72;;
64684;SDS011;51109;47.414;18.954;2024-02-23T11:43:51;4.97;;;3.75;;
64684;SDS011;51109;47.414;18.954;2024-02-23T11:46:18;6.07;;;4.30;;
64684;SDS011;51109;47.414;18.954;2024-02-23T11:48:45;6.78;;;3.92;;
64684;SDS011;51109;47.414;18.954;2024-02-23T11:51:14;4.28;;;3.70;;
64684;SDS011;51109;47.414;18.954;2024-02-23T11:53:40;5.47;;;3.80;;
64684;SDS011;51109;47.414;18.954;2024-02-23T11:56:07;5.90;;;4.18;;
64684;SDS011;51109;47.414;18.954;2024-02-23T11:58:33;4.18;;;3.38;;
64684;SDS011;51109;47.414;18.954;2024-02-23T12:01:00;4.50;;;3.47;;
64684;SDS011;51109;47.414;18.954;2024-02-23T12:03:31;4.45;;;3.70;;
64684;SDS011;51109;47.414;18.954;2024-02-23T12:05:57;4.32;;;3.20;;
64684;SDS011;51109;47.414;18.954;2024-02-23T12:08:26;5.53;;;3.67;;
64684;SDS011;51109;47.414;18.954;2024-02-23T12:10:54;5.35;;;4.10;;
64684;SDS011;51109;47.414;18.954;2024-02-23T12:13:20;4.68;;;3.33;;
64684;SDS011;51109;47.414;18.954;2024-02-23T12:15:52;4.68;;;3.28;;
64684;SDS011;51109;47.414;18.954;2024-02-23T12:18:21;8.30;;;5.30;;
64684;SDS011;51109;47.414;18.954;2024-02-23T12:20:48;7.45;;;4.57;;
64684;SDS011;51109;47.414;18.954;2024-02-23T12:23:15;5.35;;;3.75;;
64684;SDS011;51109;47.414;18.954;2024-02-23T12:25:51;4.55;;;3.72;;
64684;SDS011;51109;47.414;18.954;2024-02-23T12:28:19;5.00;;;3.47;;
64684;SDS011;51109;47.414;18.954;2024-02-23T12:30:45;5.45;;;3.85;;
64684;SDS011;51109;47.414;18.954;2024-02-23T12:33:12;5.78;;;3.97;;
64684;SDS011;51109;47.414;18.954;2024-02-23T12:35:41;4.70;;;3.95;;
64684;SDS011;51109;47.414;18.954;2024-02-23T12:38:07;7.25;;;4.65;;
64684;SDS011;51109;47.414;18.954;2024-02-23T12:40:32;6.45;;;4.60;;
64684;SDS011;51109;47.414;18.954;2024-02-23T12:42:58;8.45;;;4.35;;
64684;SDS011;51109;47.414;18.954;2024-02-23T12:45:24;7.00;;;4.65;;
64684;SDS011;51109;47.414;18.954;2024-02-23T12:47:50;6.78;;;4.75;;
64684;SDS011;51109;47.414;18.954;2024-02-23T12:50:17;8.02;;;5.35;;
64684;SDS011;51109;47.414;18.954;2024-02-23T12:52:43;7.10;;;5.00;;
64684;SDS011;51109;47.414;18.954;2024-02-23T12:55:08;6.20;;;4.95;;
64684;SDS011;51109;47.414;18.954;2024-02-23T12:57:34;6.60;;;5.63;;
64684;SDS011;51109;47.414;18.954;2024-02-23T13:00:00;8.05;;;5.78;;
64684;SDS011;51109;47.414;18.954;2024-02-23T13:02:26;8.20;;;5.80;;
64684;SDS011;51109;47.414;18.954;2024-02-23T13:04:52;12.38;;;6.00;;
64684;SDS011;51109;47.414;18.954;2024-02-23T13:07:18;8.65;;;6.13;;
64684;SDS011;51109;47.414;18.954;2024-02-23T13:09:44;9.18;;;6.65;;
64684;SDS011;51109;47.414;18.954;2024-02-23T13:12:10;13.10;;;7.38;;
64684;SDS011;51109;47.414;18.954;2024-02-23T13:14:36;11.63;;;7.28;;
64684;SDS011;51109;47.414;18.954;2024-02-23T13:17:02;11.18;;;7.60;;
64684;SDS011;51109;47.414;18.954;2024-02-23T13:19:29;11.07;;;7.80;;
64684;SDS011;51109;47.414;18.954;2024-02-23T13:21:55;22.92;;;11.68;;
64684;SDS011;51109;47.414;18.954;2024-02-23T13:24:21;12.77;;;8.85;;
64684;SDS011;51109;47.414;18.954;2024-02-23T13:26:47;13.25;;;8.98;;
64684;SDS011;51109;47.414;18.954;2024-02-23T13:29:13;15.65;;;9.63;;
64684;SDS011;51109;47.414;18.954;2024-02-23T13:31:38;14.90;;;10.20;;
64684;SDS011;51109;47.414;18.954;2024-02-23T13:34:04;16.35;;;10.50;;
64684;SDS011;51109;47.414;18.954;2024-02-23T13:36:30;15.90;;;11.23;;
64684;SDS011;51109;47.414;18.954;2024-02-23T13:38:56;17.02;;;12.13;;
64684;SDS011;51109;47.414;18.954;2024-02-23T13:41:22;22.70;;;12.93;;
64684;SDS011;51109;47.414;18.954;2024-02-23T13:43:48;17.33;;;12.15;;
64684;SDS011;51109;47.414;18.954;2024-02-23T13:46:14;19.73;;;11.73;;
64684;SDS011;51109;47.414;18.954;2024-02-23T13:48:39;19.23;;;12.40;;
64684;SDS011;51109;47.414;18.954;2024-02-23T13:51:05;17.67;;;11.70;;
64684;SDS011;51109;47.414;18.954;2024-02-23T13:53:32;17.35;;;11.18;;
64684;SDS011;51109;47.414;18.954;2024-02-23T13:55:58;20.05;;;11.93;;
64684;SDS011;51109;47.414;18.954;2024-02-23T13:58:26;16.65;;;12.00;;
64684;SDS011;51109;47.414;18.954;2024-02-23T14:00:53;19.42;;;12.40;;
64684;SDS011;51109;47.414;18.954;2024-02-23T14:03:19;19.60;;;12.48;;
64684;SDS011;51109;47.414;18.954;2024-02-23T14:05:46;19.02;;;11.98;;
64684;SDS011;51109;47.414;18.954;2024-02-23T14:08:12;19.70;;;12.98;;
64684;SDS011;51109;47.414;18.954;2024-02-23T14:10:38;20.40;;;12.63;;
64684;SDS011;51109;47.414;18.954;2024-02-23T14:13:05;17.35;;;12.70;;
64684;SDS011;51109;47.414;18.954;2024-02-23T14:15:31;17.17;;;12.50;;
64684;SDS011;51109;47.414;18.954;2024-02-23T14:17:57;20.05;;;12.30;;
64684;SDS011;51109;47.414;18.954;2024-02-23T14:20:23;16.70;;;12.50;;
64684;SDS011;51109;47.414;18.954;2024-02-23T14:22:49;19.75;;;12.57;;
64684;SDS011;51109;47.414;18.954;2024-02-23T14:25:15;22.05;;;11.85;;
64684;SDS011;51109;47.414;18.954;2024-02-23T14:27:41;19.50;;;11.40;;